Weather observations for the past three days for
Cumberland
Imperial (Metric)
Date Time (cdt) Wind (mph) Vis. (mi.) Weather Sky Cond. Temperature (ºF) Relative Humidity Wind Chill (°F) Heat Index (°F) Pressure Precipitation (in)
Air Dwpt 6 hour altimeter (in) sea level (mb) 1 hr 3 hr 6 hr
Max. Min.
05 00:35 N 6 7.00 Overcast OVC003 71.6 71.6 100% 30.01 0.0
05 00:15 N 6 10.00 Overcast OVC005 71.6 71.6 100% 30.01 0.0
04 23:55 N 8 10.00 Overcast OVC005 71.6 71.6 100% 30 0.0
04 23:35 NE 5 10.00 Overcast OVC005 71.6 71.6 100% 30.01 0.0
04 23:15 N 6 10.00 Mostly Cloudy BKN005 71.6 69.8 94% 30.01 0.0
04 22:55 N 8 10.00 Fair CLR 71.6 69.8 94% 30.01 0.0
04 22:35 N 6 10.00 Fair CLR 71.6 69.8 94% 30.01 0.0
04 22:15 N 6 10.00 Fair CLR 71.6 69.8 94% 30.01 0.0
04 21:55 N 5 10.00 Fair CLR 71.6 69.8 94% 30.02 0.0
04 21:35 N 5 10.00 Partly Cloudy SCT013 71.6 69.8 94% 30.01 0.0
04 21:15 N 6 10.00 Mostly Cloudy BKN013 73.4 69.8 89% 30.01 0.0
04 20:55 N 6 10.00 Mostly Cloudy BKN013 73.4 69.8 89% 30.01 0.0
04 20:35 N 6 10.00 Fair CLR 73.4 69.8 89% 30 0.0
04 20:15 N 7 10.00 Fair CLR 75.2 69.8 83% 75 29.99 0.0
04 19:55 N 8 10.00 Fair CLR 77 71.6 83% 78 29.98 0.0
04 19:35 N 7 10.00 Fair CLR 78.8 71.6 79% 82 29.98 0.0
04 19:15 N 7 10.00 Fair CLR 78.8 71.6 79% 82 29.97 0.0
04 18:55 N 9 10.00 Fair CLR 80.6 71.6 74% 85 29.96 0.0
04 18:35 N 10 10.00 Fair CLR 82.4 71.6 70% 87 29.96 0.0
04 18:15 N 10 10.00 Fair CLR 84.2 71.6 66% 90 29.96 0.0
04 17:55 N 7 10.00 Fair CLR 86 71.6 62% 92 29.95 0.0
04 17:35 N 8 10.00 Fair CLR 86 71.6 62% 92 29.94 0.0
04 17:15 N 10 10.00 Fair CLR 87.8 71.6 59% 94 29.94 0.0
04 16:50 N 9 10.00 Fair CLR 87.8 71.6 59% 94 29.93 0.0
04 16:35 N 7 10.00 Fair CLR 87.8 71.6 59% 94 29.93 0.0
04 16:15 N 9 10.00 Fair CLR 87.8 71.6 59% 94 29.93 0.0
04 15:55 N 8 10.00 Fair CLR 87.8 71.6 59% 94 29.93 0.0
04 15:35 N 5 10.00 Fair CLR 87.8 71.6 59% 94 29.93 0.0
04 15:15 NW 5 10.00 Fair CLR 87.8 73.4 62% 96 29.93 0.0
04 14:55 N 3 10.00 Partly Cloudy SCT025 SCT039 87.8 73.4 62% 96 29.93 0.0
04 14:35 NE 3 10.00 Mostly Cloudy SCT023 BKN039 86 73.4 66% 93 29.93 0.0
04 14:15 NW 5 10.00 Partly Cloudy SCT021 86 73.4 66% 93 29.94 0.0
04 13:55 Calm 10.00 Partly Cloudy SCT019 84.2 73.4 70% 91 29.94 0.0
04 13:35 N 7 10.00 Mostly Cloudy BKN017 86 75.2 70% 95 29.93 0.0
04 13:15 N 7 10.00 Overcast OVC017 82.4 75.2 79% 89 29.94 0.0
04 12:55 N 7 10.00 Overcast OVC017 82.4 75.2 79% 89 29.93 0.0
04 12:35 N 3 10.00 Overcast OVC015 80.6 75.2 84% 86 29.94 0.0
04 12:15 Calm 10.00 Overcast BKN009 OVC015 80.6 77 89% 87 29.94 0.0
04 11:55 Calm 10.00 Overcast OVC009 80.6 77 89% 87 29.93 0.0
04 11:35 NE 3 10.00 Overcast OVC005 78.8 77 94% 83 29.94 0.0
04 11:15 NE 5 5.00 Fog/Mist OVC003 78.8 77 94% 83 29.93 0.0
04 10:55 N 3 2.50 Fog/Mist OVC003 77 77 100% 78 29.93 0.0
04 10:35 N 5 3.00 Fog/Mist OVC003 77 77 100% 78 29.93 0.0
04 10:15 NE 3 2.50 Fog/Mist OVC003 77 77 100% 78 29.92 0.0
04 09:55 Calm 3.00 Fog/Mist OVC003 77 77 100% 78 29.91 0.0
04 09:35 E 3 2.50 Fog/Mist OVC003 77 77 100% 78 29.91 0.0
04 09:15 Calm 3.00 Fog/Mist OVC003 77 77 100% 78 29.91 0.0
04 08:55 Calm 3.00 Fog/Mist OVC003 77 75.2 94% 78 29.9 0.0
04 08:35 S 5 1.25 Fog/Mist OVC003 75.2 75.2 100% 73 29.89 0.0
04 08:15 Calm 3.00 Fog/Mist OVC003 75.2 73.4 94% 74 29.89 0.0
04 07:55 SE 3 5.00 Fog/Mist OVC003 73.4 73.4 100% 29.89 0.0
04 07:35 S 3 7.00 Overcast OVC005 73.4 73.4 100% 29.87 0.0
04 07:15 S 5 10.00 Overcast OVC007 73.4 71.6 94% 29.87 0.0
04 06:55 Calm 10.00 Overcast OVC007 73.4 71.6 94% 29.87 0.0
04 06:35 Calm 10.00 Overcast OVC009 73.4 71.6 94% 29.87 0.0
04 06:15 E 5 10.00 Overcast OVC009 73.4 71.6 94% 29.87 0.0
04 05:55 E 7 10.00 Overcast OVC009 73.4 71.6 94% 29.87 0.0
04 05:35 E 7 10.00 Overcast OVC009 71.6 71.6 100% 29.87 0.0
04 05:15 NE 7 10.00 Overcast OVC007 71.6 71.6 100% 29.88 0.0
04 04:55 NE 8 10.00 Overcast OVC005 71.6 71.6 100% 29.88 0.0
04 04:35 NE 8 10.00 Overcast OVC005 73.4 71.6 94% 29.89 0.0
04 04:15 N 12 10.00 Overcast OVC005 73.4 73.4 100% 29.89 0.0
04 03:55 N 5 7.00 Overcast OVC005 73.4 73.4 100% 29.87 0.0
04 03:35 NE 3 7.00 Partly Cloudy SCT005 71.6 71.6 100% 29.86 0.0
04 03:15 Calm 7.00 Partly Cloudy SCT003 73.4 73.4 100% 29.85 0.0
04 02:55 SW 5 5.00 Fog/Mist CLR 71.6 71.6 100% 29.85 0.0
04 02:30 Calm 7.00 Fair CLR 73.4 73.4 100% 29.85 0.0
04 02:15 E 5 10.00 Fair CLR 73.4 73.4 100% 29.85 0.0
04 01:55 Calm 10.00 Fair CLR 73.4 73.4 100% 29.85 0.0
04 01:35 Calm 10.00 Fair CLR 73.4 73.4 100% 29.86 0.0
04 01:15 Calm 10.00 Partly Cloudy SCT033 75.2 73.4 94% 74 29.86 0.0
04 00:55 SE 3 10.00 Overcast BKN033 OVC045 75.2 73.4 94% 74 29.87 0.0
04 00:35 E 5 10.00 Mostly Cloudy BKN035 BKN045 BKN055 75.2 73.4 94% 74 29.87 0.0
04 00:15 Calm 10.00 Mostly Cloudy SCT035 SCT055 BKN075 75.2 73.4 94% 74 29.87 0.0
03 23:55 SE 5 10.00 Mostly Cloudy BKN037 BKN050 BKN075 77 73.4 89% 78 29.87 0.0
03 23:35 SE 5 10.00 Overcast OVC037 77 73.4 89% 78 29.88 0.0
03 23:15 Calm 10.00 Overcast BKN037 OVC050 77 73.4 89% 78 29.87 0.0
03 22:55 SE 6 10.00 Overcast BKN039 BKN047 OVC050 77 73.4 89% 78 29.87 0.0
03 22:35 SE 3 10.00 Overcast SCT038 SCT046 OVC050 77 73.4 89% 78 29.88 0.0
03 22:15 SE 6 10.00 Overcast SCT041 SCT048 OVC050 77 73.4 89% 78 29.88 0.0
03 21:55 SE 3 10.00 Overcast SCT045 OVC050 77 73.4 89% 78 29.88 0.0
03 21:35 Calm 10.00 Overcast OVC050 77 73.4 89% 78 29.88 0.0
03 21:15 SE 6 10.00 Overcast OVC055 77 73.4 89% 78 29.88 0.0
03 20:55 SE 7 10.00 Overcast OVC055 77 73.4 89% 78 29.87 0.0
03 20:35 SE 5 10.00 Overcast OVC055 77 73.4 89% 78 29.87 0.0
03 20:15 E 7 10.00 Mostly Cloudy BKN065 77 73.4 89% 78 29.87 0.0
03 19:55 SE 3 10.00 Partly Cloudy SCT065 77 71.6 83% 78 29.87 0.0
03 19:35 SE 5 10.00 Fair CLR 77 71.6 83% 78 29.86 0.0
03 19:15 SE 8 10.00 Fair CLR 77 71.6 83% 78 29.85 0.0
03 18:55 SE 8 10.00 Fair CLR 78.8 71.6 79% 82 29.85 0.0
03 18:35 E 9 10.00 Thunderstorm Light Rain in Vicinity SCT027 SCT039 BKN120 78.8 71.6 79% 82 29.86 0.0
03 18:15 E 9 10.00 Mostly Cloudy BKN120 78.8 71.6 79% 82 29.88 0.0
03 17:55 E 6 10.00 Thunderstorm in Vicinity BKN120 78.8 71.6 79% 82 29.87 0.0
03 17:35 E 7 10.00 Thunderstorm BKN110 80.6 71.6 74% 85 29.84 0.0
03 17:15 SE 8 10.00 Thunderstorm SCT120 80.6 71.6 74% 85 29.86 0.0
03 16:55 SE 6 10.00 Partly Cloudy SCT120 80.6 71.6 74% 85 29.86 0.0
03 16:35 SE 9 10.00 Partly Cloudy SCT120 82.4 71.6 70% 87 29.87 0.0
03 16:15 SE 8 10.00 Fair CLR 82.4 73.4 74% 88 29.87 0.0
03 15:55 S 6 10.00 Thunderstorm in Vicinity CLR 82.4 71.6 70% 87 29.88 0.0
03 15:35 SE 8 10.00 Thunderstorm in Vicinity CLR 82.4 71.6 70% 87 29.86 0.0
03 15:15 SE 6 10.00 Partly Cloudy SCT095 82.4 71.6 70% 87 29.87 0.0
03 14:55 S 8 10.00 Mostly Cloudy BKN095 82.4 71.6 70% 87 29.88 0.0
03 14:35 S 9 10.00 Overcast BKN085 OVC110 84.2 71.6 66% 90 29.88 0.0
03 14:15 SE 8 10.00 Overcast OVC075 82.4 71.6 70% 87 29.89 0.0
03 13:55 S 7 10.00 Thunderstorm in Vicinity BKN075 84.2 71.6 66% 90 29.89 0.0
03 13:35 SE 9 10.00 Mostly Cloudy BKN075 BKN095 84.2 71.6 66% 90 29.89 0.0
03 13:15 S 9 10.00 Mostly Cloudy BKN075 84.2 71.6 66% 90 29.9 0.0
03 12:55 S 6 10.00 Mostly Cloudy BKN085 86 69.8 59% 91 29.89 0.0
03 12:35 S 10 G 16 10.00 Partly Cloudy SCT085 84.2 69.8 62% 88 29.9 0.0
03 12:15 S 7 10.00 Mostly Cloudy BKN085 BKN100 84.2 73.4 70% 91 29.9 0.0
03 11:55 SE 7 10.00 Overcast OVC085 82.4 71.6 70% 87 29.91 0.0
03 11:35 SE 6 10.00 Mostly Cloudy BKN085 82.4 71.6 70% 87 29.9 0.0
03 11:10 S 6 10.00 Mostly Cloudy BKN080 84.2 73.4 70% 91 29.9 0.0
03 10:55 SE 6 10.00 Partly Cloudy SCT070 SCT080 82.4 71.6 70% 87 29.89 0.0
03 10:35 S 5 10.00 Fair CLR 82.4 71.6 70% 87 29.89 0.0
03 10:15 S 7 10.00 Fair CLR 82.4 71.6 70% 87 29.89 0.0
03 09:55 S 6 10.00 Fair CLR 80.6 71.6 74% 85 29.9 0.0
03 09:35 S 5 10.00 Fair CLR 80.6 71.6 74% 85 29.9 0.0
03 09:15 Calm 10.00 Partly Cloudy SCT048 SCT050 78.8 69.8 74% 81 29.91 0.0
03 08:55 Calm 10.00 Mostly Cloudy BKN046 BKN050 75.2 69.8 83% 75 29.92 0.0
03 08:35 SE 5 10.00 Mostly Cloudy SCT044 BKN050 BKN110 73.4 68 83% 29.92 0.0
03 08:15 E 6 10.00 Overcast SCT022 BKN037 OVC042 71.6 68 88% 29.94 0.0
03 07:55 Calm 10.00 Overcast BKN024 BKN030 OVC039 71.6 66.2 83% 29.94 0.0
03 07:35 E 5 10.00 Overcast BKN024 BKN034 OVC047 71.6 66.2 83% 29.93 0.0
03 07:15 Calm 10.00 Overcast SCT042 OVC050 71.6 66.2 83% 29.92 0.0
03 06:55 NE 5 10.00 Overcast BKN043 OVC049 69.8 66.2 88% 29.91 0.0
03 06:35 Calm 10.00 Mostly Cloudy BKN041 69.8 64.4 83% 29.91 0.0
03 06:15 Calm 10.00 Fair CLR 68 64.4 88% 29.9 0.0
03 05:55 E 3 10.00 Fair CLR 69.8 64.4 83% 29.91 0.0
03 05:35 NE 5 10.00 Fair CLR 69.8 64.4 83% 29.9 0.0
03 05:15 Calm 10.00 Fair CLR 69.8 64.4 83% 29.9 0.0
03 04:55 E 3 10.00 Fair CLR 69.8 64.4 83% 29.89 0.0
03 04:35 E 3 10.00 Partly Cloudy SCT041 69.8 64.4 83% 29.89 0.0
03 04:15 E 3 10.00 Overcast BKN037 OVC043 71.6 64.4 78% 29.9 0.0
03 03:55 Calm 10.00 Overcast OVC035 71.6 64.4 78% 29.9 0.0
03 03:35 Calm 10.00 Overcast OVC033 71.6 64.4 78% 29.9 0.0
03 03:15 E 3 10.00 Overcast OVC033 71.6 64.4 78% 29.9 0.0
03 02:55 E 5 10.00 Mostly Cloudy BKN034 71.6 64.4 78% 29.9 0.0
03 02:35 E 5 10.00 Partly Cloudy SCT037 SCT120 73.4 62.6 69% 29.91 0.0
03 02:15 NE 6 10.00 Fair CLR 71.6 64.4 78% 29.91 0.0
03 01:55 NE 5 10.00 Partly Cloudy SCT044 71.6 64.4 78% 29.92 0.0
03 01:35 E 5 10.00 Partly Cloudy SCT044 71.6 64.4 78% 29.92 0.0
03 01:15 E 6 10.00 Partly Cloudy SCT044 71.6 68 88% 29.93 0.0
03 00:55 NE 7 10.00 Fair CLR 71.6 68 88% 29.92 0.0
03 00:35 NE 3 10.00 Fair CLR 71.6 68 88% 29.92 0.0
03 00:15 E 5 10.00 Fair CLR 71.6 68 88% 29.93 0.0
02 23:55 Calm 10.00 Fair CLR 71.6 68 88% 29.93 0.0
02 23:35 Calm 10.00 Fair CLR 71.6 68 88% 29.92 0.0
02 23:15 Calm 10.00 Partly Cloudy SCT060 71.6 68 88% 29.92 0.0
02 22:55 NE 3 10.00 Partly Cloudy SCT060 73.4 68 83% 29.92 0.0
02 22:35 Calm 10.00 Fair CLR 71.6 68 88% 29.93 0.0
02 22:15 NE 3 10.00 Fair CLR 73.4 68 83% 29.93 0.0
02 21:55 Calm 10.00 Fair CLR 73.4 69.8 89% 29.93 0.0
02 21:35 Calm 10.00 Fair CLR 73.4 69.8 89% 29.93 0.0
02 21:15 Calm 10.00 Fair CLR 73.4 69.8 89% 29.92 0.0
02 20:55 Calm 10.00 Partly Cloudy SCT110 77 69.8 79% 79 29.92 0.0
02 20:35 Calm 10.00 Partly Cloudy SCT120 77 69.8 79% 79 29.91 0.0
02 20:15 Calm 10.00 Fair CLR 78.8 69.8 74% 81 29.91 0.0
02 19:55 Calm 10.00 Partly Cloudy SCT095 SCT120 77 69.8 79% 79 29.9 0.0
02 19:35 Calm 10.00 Mostly Cloudy SCT095 BKN120 80.6 69.8 70% 84 29.91 0.0
02 19:15 Calm 10.00 Partly Cloudy SCT120 80.6 69.8 70% 84 29.91 0.0
02 18:55 Calm 10.00 Fair CLR 82.4 66.2 58% 85 29.91 0.0
02 18:35 Calm 10.00 Fair CLR 86 66.2 52% 88 29.91 0.0
02 18:15 Calm 10.00 Fair CLR 86 66.2 52% 88 29.91 0.0
02 17:55 Calm 10.00 Fair CLR 86 64.4 49% 87 29.91 0.0
02 17:35 Calm 10.00 Fair CLR 87.8 64.4 46% 89 29.9 0.0
02 17:15 Calm 10.00 Fair CLR 87.8 62.6 43% 88 29.91 0.0
02 16:55 Calm 10.00 Fair CLR 87.8 62.6 43% 88 29.91 0.0
02 16:35 Calm 10.00 Fair CLR 87.8 62.6 43% 88 29.91 0.0
02 16:15 Calm 10.00 Fair CLR 87.8 64.4 46% 89 29.91 0.0
02 15:55 Calm 10.00 Fair CLR 87.8 62.6 43% 88 29.91 0.0
02 15:35 Calm 10.00 Partly Cloudy SCT120 87.8 64.4 46% 89 29.92 0.0
02 15:15 Calm 10.00 Mostly Cloudy BKN120 86 62.6 46% 87 29.92 0.0
02 14:55 Calm 10.00 Mostly Cloudy BKN120 86 62.6 46% 87 29.93 0.0
02 14:35 Calm 10.00 Partly Cloudy SCT120 86 62.6 46% 87 29.93 0.0
02 14:15 S 3 10.00 Fair CLR 86 62.6 46% 87 29.93 0.0
02 13:55 E 3 10.00 Fair CLR 86 64.4 49% 87 29.94 0.0
02 13:35 SW 6 10.00 Fair CLR 86 68 55% 89 29.94 0.0
02 13:15 SE 3 10.00 Fair CLR 84.2 66.2 55% 87 29.95 0.0
02 12:55 Calm 10.00 Fair CLR 84.2 62.6 48% 85 29.95 0.0
02 12:35 Calm 10.00 Fair CLR 82.4 64.4 55% 84 29.95 0.0
02 12:15 Calm 10.00 Fair CLR 82.4 64.4 55% 84 29.96 0.0
02 11:55 Calm 10.00 Fair CLR 80.6 68 66% 83 29.97 0.0
02 11:35 Calm 10.00 Fair CLR 80.6 68 66% 83 29.96 0.0
02 11:15 Calm 10.00 Fair CLR 78.8 68 70% 81 29.96 0.0
02 10:55 Calm 10.00 Fair CLR 78.8 68 70% 81 29.95 0.0
02 10:35 SW 3 10.00 Fair CLR 78.8 68 70% 81 29.95 0.0
02 10:15 Calm 10.00 Fair CLR 77 68 74% 79 29.95 0.0
02 09:55 Calm 10.00 Fair CLR 77 68 74% 79 29.95 0.0
02 09:35 Calm 10.00 Fair CLR 73.4 66.2 78% 29.94 0.0
02 09:15 Calm 10.00 Fair CLR 71.6 68 88% 29.95 0.0
02 08:55 Calm 10.00 Fair CLR 71.6 68 88% 29.95 0.0
02 08:35 Calm 10.00 Fair CLR 69.8 68 94% 29.95 0.0
02 08:15 Calm 10.00 Fair CLR 69.8 68 94% 29.96 0.0
02 07:55 Calm 10.00 Fair CLR 69.8 68 94% 29.98 0.0
02 07:35 SW 5 10.00 Partly Cloudy SCT120 68 68 100% 29.99 0.0
02 07:15 S 3 10.00 Mostly Cloudy BKN110 68 68 100% 29.99 0.0
02 06:55 S 5 10.00 Mostly Cloudy BKN110 68 68 100% 29.98 0.0
02 06:35 Calm 10.00 Mostly Cloudy BKN120 68 68 100% 29.96 0.0
02 06:15 Calm 10.00 Partly Cloudy SCT120 68 66.2 94% 29.94 0.0
02 05:55 Calm 10.00 Partly Cloudy SCT120 68 66.2 94% 29.93 0.0
02 05:35 Calm 10.00 Fair CLR 68 68 100% 29.93 0.0
02 05:15 Calm 10.00 Fair CLR 68 68 100% 29.92 0.0
02 04:55 E 5 10.00 Fair CLR 69.8 66.2 88% 29.93 0.0
02 04:35 E 3 10.00 Partly Cloudy SCT120 69.8 66.2 88% 29.94 0.0
02 04:15 NE 3 10.00 Partly Cloudy SCT120 69.8 66.2 88% 29.96 0.0
02 03:55 Calm 10.00 Light Drizzle CLR 69.8 66.2 88% 29.97 0.0
02 03:35 S 3 10.00 Light Rain CLR 69.8 68 94% 29.97 0.0
02 03:10 S 6 10.00 Light Rain SCT070 SCT095 BKN120 68 68 100% 29.96 0.0
02 02:55 S 3 10.00 Light Rain SCT095 SCT120 68 68 100% 29.96 0.0
02 02:35 S 6 10.00 Light Rain SCT095 BKN120 68 68 100% 29.96 0.0
02 02:15 Calm 10.00 Overcast OVC085 68 68 100% 29.95 0.0
02 01:55 S 5 10.00 Mostly Cloudy BKN085 68 66.2 94% 29.96 0.0
02 01:35 Calm 10.00 Partly Cloudy SCT085 69.8 64.4 83% 29.95 0.0
02 01:15 N 3 10.00 Fair CLR 69.8 64.4 83% 29.94 0.0
02 00:55 Calm 10.00 Partly Cloudy SCT080 69.8 66.2 88% 29.95 0.0
Date Time (cdt) Wind (mph) Vis. (mi.) Weather Sky Cond. Air Dwpt Max. Min. Relative Humidity Wind Chill (°F) Heat Index (°F) altimeter (in) sea level (mb) 1 hr 3 hr 6 hr
6 hour
Temperature (ºF) Pressure Precipitation (in)